Impacts TAF Board
For situational awareness. Not to be used for flight planning purposes.
IDs:

KISM - Kissimmee Muni, FL, US

Issued at 1146 UTC 03 Dec 2021
Updated at 1526 UTC 03 Dec 2021
Potential Impact None Slight Moderate High
Time<<04/16Z 04/17Z 04/18Z 04/19Z 04/20Z 04/21Z 04/22Z 04/23Z 05/00Z 05/01Z 05/02Z 05/03Z 05/04Z
Type
VIS
CIG
Cover
FltCat
WX
WDir
WSpd
WGst
WSHgt
WSDir
WSSpd
Raw TAF
KISM 031146Z 0312/0412 00000KT P6SM SCT300
  TEMPO 0312/0313 3SM BR SCT005
  FM031400 34005KT P6SM SCT300
  FM032000 VRB03KT P6SM SCT300
  TEMPO 0408/0412 3SM BR SCT010


METAR Board
Radar Display
Forecast Discussion
For situational awareness. Not to be used for flight planning purposes.